createdAt,value
2023-05-02T00:00:52.714Z,12.47
2023-05-02T00:01:52.654Z,12.47
2023-05-02T00:02:52.792Z,12.29
2023-05-02T00:03:52.764Z,12.27
2023-05-02T00:04:52.595Z,12.23
2023-05-02T00:05:52.630Z,12.29
2023-05-02T00:06:52.691Z,12.28
2023-05-02T00:07:52.562Z,12.23
2023-05-02T00:08:52.550Z,12.17
2023-05-02T00:09:52.564Z,12.27
2023-05-02T00:10:52.582Z,12.17
2023-05-02T00:11:52.539Z,12.14
2023-05-02T00:12:52.535Z,12.20
2023-05-02T00:13:52.514Z,12.16
2023-05-02T00:14:52.516Z,12.10
2023-05-02T00:15:52.489Z,12.20
2023-05-02T00:16:52.526Z,12.23
2023-05-02T00:17:52.524Z,12.17
2023-05-02T00:18:52.488Z,12.31
2023-05-02T00:19:52.470Z,12.16
2023-05-02T00:20:52.462Z,12.20
2023-05-02T00:21:52.445Z,12.35
2023-05-02T00:22:52.414Z,12.24
2023-05-02T00:23:52.417Z,12.21
2023-05-02T00:24:52.412Z,12.17
2023-05-02T00:25:52.407Z,12.16
2023-05-02T00:26:52.399Z,12.12
2023-05-02T00:27:52.373Z,12.13
2023-05-02T00:28:52.382Z,12.10
2023-05-02T00:29:52.381Z,12.24
2023-05-02T00:30:52.373Z,12.17
2023-05-02T00:31:52.364Z,12.19
2023-05-02T00:32:52.374Z,12.20
2023-05-02T00:33:52.348Z,12.28
2023-05-02T00:34:52.324Z,12.27
2023-05-02T00:35:52.367Z,12.35
2023-05-02T00:36:53.276Z,12.35
2023-05-02T00:37:52.275Z,12.45
2023-05-02T00:38:52.264Z,12.47
2023-05-02T00:39:52.253Z,12.52
2023-05-02T00:40:52.276Z,12.39
2023-05-02T00:41:52.263Z,12.49
2023-05-02T00:42:52.252Z,12.57
2023-05-02T00:43:52.212Z,12.64
2023-05-02T00:44:52.197Z,12.60
2023-05-02T00:45:52.299Z,12.64
2023-05-02T00:46:52.218Z,12.50
2023-05-02T00:47:52.202Z,12.64
2023-05-02T00:48:52.176Z,12.59
2023-05-02T00:49:52.146Z,12.60
2023-05-02T00:50:52.146Z,12.53
2023-05-02T00:51:52.174Z,12.62
2023-05-02T00:52:53.144Z,12.56
2023-05-02T00:53:52.128Z,12.60
2023-05-02T00:54:52.132Z,12.65
2023-05-02T00:55:52.100Z,12.67
2023-05-02T00:56:52.089Z,12.67
2023-05-02T00:57:53.084Z,12.65
2023-05-02T00:58:52.088Z,12.64
2023-05-02T00:59:52.053Z,12.67
2023-05-02T01:00:52.091Z,12.60
2023-05-02T01:01:52.062Z,12.53
2023-05-02T01:02:52.205Z,12.46
2023-05-02T01:03:52.206Z,12.54
2023-05-02T01:04:52.022Z,12.45
2023-05-02T01:05:51.999Z,12.28
2023-05-02T01:06:52.110Z,12.37
2023-05-02T01:07:51.956Z,12.23
2023-05-02T01:08:51.975Z,12.20
2023-05-02T01:09:51.960Z,12.27
2023-05-02T01:10:51.971Z,12.23
2023-05-02T01:11:51.933Z,12.14
2023-05-02T01:12:51.918Z,12.12
2023-05-02T01:13:51.929Z,12.24
2023-05-02T01:14:51.937Z,12.13
2023-05-02T01:15:52.004Z,12.14
2023-05-02T01:16:51.908Z,12.21
2023-05-02T01:17:51.952Z,12.09
2023-05-02T01:18:51.854Z,12.14
2023-05-02T01:19:51.848Z,12.19
2023-05-02T01:20:51.862Z,12.17
2023-05-02T01:21:51.819Z,12.27
2023-05-02T01:22:51.806Z,12.24
2023-05-02T01:23:51.812Z,12.23
2023-05-02T01:24:51.802Z,12.23
2023-05-02T01:25:51.814Z,12.23
2023-05-02T01:26:51.797Z,12.29
2023-05-02T01:27:51.767Z,12.31
2023-05-02T01:28:51.760Z,12.32
2023-05-02T01:29:51.751Z,12.27
2023-05-02T01:30:51.781Z,12.37
2023-05-02T01:31:51.754Z,12.24
2023-05-02T01:32:51.749Z,12.47
2023-05-02T01:33:51.708Z,12.47
2023-05-02T01:34:51.704Z,12.35
2023-05-02T01:35:51.715Z,12.47
2023-05-02T01:36:51.692Z,12.28
2023-05-02T01:37:52.690Z,12.35
2023-05-02T01:38:51.719Z,12.28
2023-05-02T01:39:51.651Z,12.37
2023-05-02T01:40:51.647Z,12.37
2023-05-02T01:41:51.694Z,12.34
2023-05-02T01:42:51.611Z,12.37
2023-05-02T01:43:51.620Z,12.32
2023-05-02T01:44:51.588Z,12.27
2023-05-02T01:45:51.587Z,12.29
2023-05-02T01:46:51.667Z,12.28
2023-05-02T01:47:51.632Z,12.23
2023-05-02T01:48:51.558Z,12.27
2023-05-02T01:49:51.566Z,12.21
2023-05-02T01:50:51.573Z,12.35
2023-05-02T01:51:52.553Z,12.28
2023-05-02T01:52:51.564Z,12.37
2023-05-02T01:53:51.541Z,12.32
2023-05-02T01:54:51.514Z,12.27
2023-05-02T01:55:51.493Z,12.28
2023-05-02T01:56:51.565Z,12.21
2023-05-02T01:57:51.479Z,12.29
2023-05-02T01:58:51.460Z,12.34
2023-05-02T01:59:51.460Z,12.29
2023-05-02T02:00:51.500Z,12.32
2023-05-02T02:01:51.454Z,12.24
2023-05-02T02:02:51.459Z,12.32
2023-05-02T02:03:51.554Z,12.24
2023-05-02T02:04:51.418Z,12.20
2023-05-02T02:05:51.432Z,12.23
2023-05-02T02:06:51.396Z,12.19
2023-05-02T02:07:51.427Z,12.31
2023-05-02T02:08:51.353Z,12.23
2023-05-02T02:09:51.414Z,12.20
2023-05-02T02:10:51.346Z,12.20
2023-05-02T02:11:51.439Z,12.20
2023-05-02T02:12:51.318Z,12.31
2023-05-02T02:13:51.316Z,12.27
2023-05-02T02:14:51.344Z,12.16
2023-05-02T02:15:51.304Z,12.20
2023-05-02T02:16:51.323Z,12.27
2023-05-02T02:17:51.291Z,12.28
2023-05-02T02:18:51.275Z,12.28
2023-05-02T02:19:51.266Z,12.32
2023-05-02T02:20:51.262Z,12.27
2023-05-02T02:21:51.233Z,12.32
2023-05-02T02:22:51.226Z,12.32
2023-05-02T02:23:51.219Z,12.31
2023-05-02T02:24:52.458Z,12.35
2023-05-02T02:25:51.230Z,12.32
2023-05-02T02:26:51.194Z,12.32
2023-05-02T02:27:51.177Z,12.23
2023-05-02T02:28:51.161Z,12.29
2023-05-02T02:29:51.157Z,12.29
2023-05-02T02:30:51.189Z,12.27
2023-05-02T02:31:51.133Z,12.23
2023-05-02T02:32:52.210Z,12.12
2023-05-02T02:33:51.109Z,12.13
2023-05-02T02:34:51.088Z,12.13
2023-05-02T02:35:51.109Z,12.07
2023-05-02T02:36:51.096Z,12.16
2023-05-02T02:37:51.069Z,12.10
2023-05-02T02:38:51.091Z,12.09
2023-05-02T02:39:51.051Z,12.12
2023-05-02T02:40:51.042Z,12.09
2023-05-02T02:41:51.044Z,12.16
2023-05-02T02:42:51.027Z,12.14
2023-05-02T02:43:51.039Z,12.16
2023-05-02T02:44:51.021Z,12.10
2023-05-02T02:45:51.072Z,12.17
2023-05-02T02:46:50.986Z,12.14
2023-05-02T02:47:51.052Z,12.19
2023-05-02T02:48:50.989Z,12.17
2023-05-02T02:49:50.997Z,12.23
2023-05-02T02:50:50.949Z,12.17
2023-05-02T02:51:51.007Z,12.10
2023-05-02T02:52:50.940Z,12.14
2023-05-02T02:53:51.011Z,12.01
2023-05-02T02:54:50.951Z,12.07
2023-05-02T02:55:51.001Z,12.04
2023-05-02T02:56:50.904Z,11.98
2023-05-02T02:57:50.891Z,12.07
2023-05-02T02:58:50.891Z,11.99
2023-05-02T02:59:50.883Z,11.91
2023-05-02T03:00:50.888Z,11.91
2023-05-02T03:01:50.872Z,11.96
2023-05-02T03:02:50.897Z,11.82
2023-05-02T03:03:50.921Z,11.82
2023-05-02T03:04:50.828Z,11.70
2023-05-02T03:05:50.830Z,11.73
2023-05-02T03:06:50.849Z,11.64
2023-05-02T03:07:50.823Z,11.65
2023-05-02T03:08:50.786Z,11.62
2023-05-02T03:09:50.782Z,11.49
2023-05-02T03:10:50.753Z,11.60
2023-05-02T03:11:50.740Z,11.61
2023-05-02T03:12:50.749Z,11.60
2023-05-02T03:13:50.739Z,11.55
2023-05-02T03:14:50.722Z,11.58
2023-05-02T03:15:50.730Z,11.60
2023-05-02T03:16:50.704Z,11.44
2023-05-02T03:18:22.603Z,11.52
2023-05-02T03:18:50.631Z,11.46
2023-05-02T03:19:50.613Z,11.51
2023-05-02T03:20:51.617Z,11.42
2023-05-02T03:21:50.622Z,11.52
2023-05-02T03:22:50.599Z,11.52
2023-05-02T03:23:50.588Z,11.49
2023-05-02T03:24:50.568Z,11.44
2023-05-02T03:25:50.559Z,11.46
2023-05-02T03:26:50.610Z,11.39
2023-05-02T03:27:50.644Z,11.43
2023-05-02T03:28:50.537Z,11.35
2023-05-02T03:29:50.527Z,11.39
2023-05-02T03:30:50.517Z,11.29
2023-05-02T03:31:50.635Z,11.39
2023-05-02T03:32:50.589Z,11.29
2023-05-02T03:33:50.484Z,11.37
2023-05-02T03:34:50.487Z,11.32
2023-05-02T03:35:50.471Z,11.36
2023-05-02T03:36:50.473Z,11.33
2023-05-02T03:37:50.480Z,11.28
2023-05-02T03:38:50.445Z,11.27
2023-05-02T03:39:50.424Z,11.35
2023-05-02T03:40:50.423Z,11.32
2023-05-02T03:41:50.458Z,11.29
2023-05-02T03:42:50.402Z,11.40
2023-05-02T03:43:50.380Z,11.35
2023-05-02T03:44:50.373Z,11.25
2023-05-02T03:45:50.369Z,11.32
2023-05-02T03:46:50.509Z,11.25
2023-05-02T03:47:50.421Z,11.29
2023-05-02T03:48:50.337Z,11.15
2023-05-02T03:49:50.335Z,11.29
2023-05-02T03:50:50.326Z,11.21
2023-05-02T03:51:50.310Z,11.21
2023-05-02T03:52:50.356Z,11.10
2023-05-02T03:53:50.282Z,11.15
2023-05-02T03:54:50.290Z,11.15
2023-05-02T03:55:50.270Z,11.06
2023-05-02T03:56:50.256Z,11.00
2023-05-02T03:57:50.243Z,11.02
2023-05-02T03:58:50.258Z,11.03
2023-05-02T03:59:50.228Z,11.06
2023-05-02T04:00:50.237Z,11.04
2023-05-02T04:01:50.357Z,10.99
2023-05-02T04:02:50.454Z,10.88
2023-05-02T04:03:50.219Z,10.73
2023-05-02T04:04:50.201Z,10.66
2023-05-02T04:05:50.189Z,10.73
2023-05-02T04:06:50.272Z,10.64
2023-05-02T04:07:50.149Z,10.73
2023-05-02T04:08:50.136Z,10.64
2023-05-02T04:09:50.160Z,10.63
2023-05-02T04:10:50.157Z,10.68
2023-05-02T04:11:50.106Z,10.63
2023-05-02T04:12:50.089Z,10.71
2023-05-02T04:13:52.587Z,10.66
2023-05-02T04:14:50.080Z,10.74
2023-05-02T04:15:50.182Z,10.71
2023-05-02T04:16:50.152Z,10.76
2023-05-02T04:17:50.086Z,10.84
2023-05-02T04:18:50.047Z,10.81
2023-05-02T04:19:50.030Z,10.86
2023-05-02T04:20:50.021Z,10.99
2023-05-02T04:21:50.030Z,10.89
2023-05-02T04:22:50.008Z,10.79
2023-05-02T04:23:49.987Z,10.89
2023-05-02T04:24:49.982Z,10.94
2023-05-02T04:25:49.973Z,10.78
2023-05-02T04:26:50.004Z,10.82
2023-05-02T04:27:50.030Z,10.84
2023-05-02T04:28:49.942Z,11.00
2023-05-02T04:29:50.927Z,11.02
2023-05-02T04:30:49.997Z,11.00
2023-05-02T04:31:49.954Z,10.96
2023-05-02T04:32:49.963Z,11.00
2023-05-02T04:33:49.906Z,11.00
2023-05-02T04:34:49.876Z,11.14
2023-05-02T04:35:49.882Z,11.04
2023-05-02T04:36:49.884Z,11.18
2023-05-02T04:37:49.857Z,11.24
2023-05-02T04:38:49.837Z,11.27
2023-05-02T04:39:49.828Z,11.32
2023-05-02T04:40:49.815Z,11.35
2023-05-02T04:41:49.894Z,11.35
2023-05-02T04:42:49.795Z,11.40
2023-05-02T04:43:49.805Z,11.37
2023-05-02T04:44:49.781Z,11.49
2023-05-02T04:45:49.808Z,11.47
2023-05-02T04:46:49.866Z,11.55
2023-05-02T04:47:49.961Z,11.61
2023-05-02T04:48:49.745Z,11.62
2023-05-02T04:49:49.719Z,11.64
2023-05-02T04:50:49.715Z,11.57
2023-05-02T04:51:49.722Z,11.46
2023-05-02T04:52:49.725Z,11.40
2023-05-02T04:53:49.689Z,11.44
2023-05-02T04:54:49.705Z,11.47
2023-05-02T04:55:49.696Z,11.52
2023-05-02T04:56:49.659Z,11.35
2023-05-02T04:57:49.682Z,11.42
2023-05-02T04:58:49.657Z,11.42
2023-05-02T04:59:49.653Z,11.44
2023-05-02T05:00:49.634Z,11.42
2023-05-02T05:01:49.636Z,11.47
2023-05-02T05:02:49.685Z,11.52
2023-05-02T05:03:49.753Z,11.43
2023-05-02T05:04:49.596Z,11.47
2023-05-02T05:05:49.568Z,11.51
2023-05-02T05:06:49.619Z,11.54
2023-05-02T05:07:49.552Z,11.72
2023-05-02T05:08:49.574Z,11.75
2023-05-02T05:09:51.179Z,11.75
2023-05-02T05:10:49.527Z,11.82
2023-05-02T05:11:49.513Z,11.83
2023-05-02T05:12:49.509Z,11.95
2023-05-02T05:13:49.512Z,11.90
2023-05-02T05:14:49.483Z,11.91
2023-05-02T05:15:49.523Z,12.12
2023-05-02T05:16:49.608Z,12.13
2023-05-02T05:17:49.469Z,12.14
2023-05-02T05:18:49.487Z,12.32
2023-05-02T05:19:49.455Z,12.50
2023-05-02T05:20:49.431Z,12.49
2023-05-02T05:21:49.432Z,12.62
2023-05-02T05:22:49.403Z,12.60
2023-05-02T05:23:49.407Z,12.77
2023-05-02T05:24:49.404Z,12.79
2023-05-02T05:25:49.382Z,13.10
2023-05-02T05:26:49.376Z,13.12
2023-05-02T05:27:49.355Z,13.11
2023-05-02T05:28:49.371Z,13.01
2023-05-02T05:29:49.367Z,12.97
2023-05-02T05:30:49.327Z,12.89
2023-05-02T05:31:49.416Z,12.86
2023-05-02T05:32:49.333Z,12.83
2023-05-02T05:33:49.398Z,12.79
2023-05-02T05:34:49.285Z,12.70
2023-05-02T05:35:49.274Z,12.71
2023-05-02T05:36:49.278Z,12.72
2023-05-02T05:37:49.249Z,12.79
2023-05-02T05:38:49.266Z,12.74
2023-05-02T05:39:49.231Z,12.86
2023-05-02T05:40:49.246Z,12.78
2023-05-02T05:41:49.203Z,12.72
2023-05-02T05:42:49.201Z,12.70
2023-05-02T05:43:49.240Z,12.54
2023-05-02T05:44:49.192Z,12.57
2023-05-02T05:45:49.168Z,12.57
2023-05-02T05:46:49.194Z,12.50
2023-05-02T05:47:49.963Z,12.47
2023-05-02T05:48:49.193Z,12.39
2023-05-02T05:49:49.150Z,12.37
2023-05-02T05:50:49.126Z,12.23
2023-05-02T05:51:49.132Z,12.16
2023-05-02T05:52:49.106Z,12.20
2023-05-02T05:53:49.103Z,12.19
2023-05-02T05:54:49.127Z,12.23
2023-05-02T05:55:49.077Z,12.32
2023-05-02T05:56:49.092Z,12.41
2023-05-02T05:57:49.051Z,12.49
2023-05-02T05:58:49.038Z,12.64
2023-05-02T05:59:49.030Z,12.78
2023-05-02T06:00:49.043Z,12.92
2023-05-02T06:01:49.033Z,12.96
2023-05-02T06:02:49.150Z,13.11
2023-05-02T06:03:49.066Z,13.14
2023-05-02T06:04:49.016Z,13.20
2023-05-02T06:05:48.980Z,13.30
2023-05-02T06:06:49.012Z,13.23
2023-05-02T06:07:49.041Z,13.42
2023-05-02T06:08:48.958Z,13.45
2023-05-02T06:09:48.954Z,13.57
2023-05-02T06:10:48.937Z,13.77
2023-05-02T06:11:48.920Z,13.82
2023-05-02T06:12:49.359Z,13.88
2023-05-02T06:13:49.907Z,13.85
2023-05-02T06:14:48.886Z,13.92
2023-05-02T06:15:48.979Z,14.10
2023-05-02T06:16:48.885Z,14.03
2023-05-02T06:17:48.930Z,14.22
2023-05-02T06:18:48.906Z,14.42
2023-05-02T06:19:48.840Z,14.73
2023-05-02T06:20:48.828Z,15.09
2023-05-02T06:21:48.816Z,15.41
2023-05-02T06:22:48.844Z,15.62
2023-05-02T06:23:48.878Z,15.84
2023-05-02T06:24:48.792Z,15.92
2023-05-02T06:25:48.785Z,15.86
2023-05-02T06:26:48.794Z,15.76
2023-05-02T06:27:48.773Z,15.41
2023-05-02T06:28:48.770Z,15.20
2023-05-02T06:29:48.774Z,15.07
2023-05-02T06:30:48.728Z,14.95
2023-05-02T06:31:48.750Z,15.03
2023-05-02T06:32:48.731Z,14.99
2023-05-02T06:33:48.739Z,15.03
2023-05-02T06:34:48.699Z,15.06
2023-05-02T06:35:48.693Z,14.91
2023-05-02T06:36:48.690Z,14.95
2023-05-02T06:37:48.660Z,15.10
2023-05-02T06:38:48.709Z,15.13
2023-05-02T06:39:48.672Z,15.32
2023-05-02T06:40:48.645Z,15.60
2023-05-02T06:41:48.620Z,15.65
2023-05-02T06:42:48.611Z,15.89
2023-05-02T06:43:48.629Z,15.94
2023-05-02T06:44:49.582Z,15.96
2023-05-02T06:45:48.619Z,15.94
2023-05-02T06:46:48.632Z,16.09
2023-05-02T06:47:48.587Z,16.07
2023-05-02T06:48:48.630Z,16.09
2023-05-02T06:49:48.541Z,16.15
2023-05-02T06:50:48.562Z,16.41
2023-05-02T06:51:48.519Z,16.25
2023-05-02T06:52:48.519Z,16.42
2023-05-02T06:53:48.552Z,16.43
2023-05-02T06:54:48.484Z,16.75
2023-05-02T06:55:48.501Z,16.82
2023-05-02T06:56:48.468Z,17.26
2023-05-02T06:57:48.457Z,17.49
2023-05-02T06:58:48.480Z,17.31
2023-05-02T06:59:48.525Z,17.40
2023-05-02T07:00:48.456Z,17.55
2023-05-02T07:01:48.420Z,17.71
2023-05-02T07:02:48.451Z,17.55
2023-05-02T07:03:48.493Z,17.41
2023-05-02T07:04:48.447Z,17.40
2023-05-02T07:05:48.377Z,16.97
2023-05-02T07:06:48.504Z,16.79
2023-05-02T07:07:48.375Z,16.82
2023-05-02T07:08:48.379Z,16.76
2023-05-02T07:09:48.338Z,16.78
2023-05-02T07:10:48.347Z,16.73
2023-05-02T07:11:48.314Z,16.76
2023-05-02T07:12:48.300Z,16.78
2023-05-02T07:13:48.320Z,16.91
2023-05-02T07:14:48.288Z,16.94
2023-05-02T07:15:48.289Z,17.11
2023-05-02T07:16:48.314Z,17.06
2023-05-02T07:17:48.275Z,17.06
2023-05-02T07:18:48.247Z,16.98
2023-05-02T07:19:48.258Z,16.82
2023-05-02T07:20:48.228Z,16.73
2023-05-02T07:21:48.216Z,16.73
2023-05-02T07:22:48.224Z,16.64
2023-05-02T07:23:48.204Z,16.68
2023-05-02T07:24:48.207Z,16.78
2023-05-02T07:25:48.181Z,16.73
2023-05-02T07:26:48.176Z,16.63
2023-05-02T07:27:48.172Z,16.64
2023-05-02T07:28:48.173Z,16.76
2023-05-02T07:29:48.139Z,16.75
2023-05-02T07:30:48.120Z,16.56
2023-05-02T07:31:48.208Z,16.61
2023-05-02T07:32:48.165Z,16.71
2023-05-02T07:33:48.115Z,16.83
2023-05-02T07:34:48.090Z,16.75
2023-05-02T07:35:48.119Z,16.82
2023-05-02T07:36:48.083Z,16.82
2023-05-02T07:37:48.080Z,17.00
2023-05-02T07:38:48.044Z,17.14
2023-05-02T07:39:48.038Z,16.97
2023-05-02T07:40:48.048Z,17.01
2023-05-02T07:41:48.020Z,16.89
2023-05-02T07:42:48.048Z,16.70
2023-05-02T07:43:48.026Z,16.70
2023-05-02T07:44:47.987Z,16.39
2023-05-02T07:45:48.028Z,16.25
2023-05-02T07:46:48.180Z,16.08
2023-05-02T07:47:47.973Z,15.97
2023-05-02T07:48:47.968Z,15.82
2023-05-02T07:49:47.945Z,15.69
2023-05-02T07:50:47.927Z,15.43
2023-05-02T07:51:47.944Z,15.19
2023-05-02T07:52:47.941Z,15.01
2023-05-02T07:53:47.906Z,14.84
2023-05-02T07:54:47.891Z,14.84
2023-05-02T07:55:47.908Z,14.77
2023-05-02T07:56:47.895Z,14.86
2023-05-02T07:57:47.881Z,14.84
2023-05-02T07:58:47.848Z,14.88
2023-05-02T07:59:47.845Z,14.86
2023-05-02T08:00:47.873Z,14.83
2023-05-02T08:01:47.839Z,14.75
2023-05-02T08:02:47.933Z,14.88
2023-05-02T08:03:48.040Z,14.81
2023-05-02T08:04:47.859Z,14.81
2023-05-02T08:05:47.775Z,14.78
2023-05-02T08:06:47.800Z,14.77
2023-05-02T08:07:47.755Z,14.80
2023-05-02T08:08:47.768Z,14.77
2023-05-02T08:09:47.739Z,14.75
2023-05-02T08:10:47.735Z,14.72
2023-05-02T08:11:47.737Z,14.81
2023-05-02T08:12:47.703Z,14.80
2023-05-02T08:13:47.700Z,14.80
2023-05-02T08:14:47.684Z,15.03
2023-05-02T08:15:47.906Z,15.03
2023-05-02T08:16:47.743Z,15.11
2023-05-02T08:17:47.721Z,15.29
2023-05-02T08:18:47.667Z,15.35
2023-05-02T08:19:47.639Z,15.29
2023-05-02T08:20:47.765Z,15.43
2023-05-02T08:21:47.625Z,15.38
2023-05-02T08:22:47.607Z,15.25
2023-05-02T08:23:47.607Z,15.13
2023-05-02T08:24:47.639Z,15.28
2023-05-02T08:25:47.602Z,15.50
2023-05-02T08:26:47.580Z,16.04
2023-05-02T08:27:47.561Z,17.31
2023-05-02T08:28:47.573Z,17.82
2023-05-02T08:29:47.546Z,18.44
2023-05-02T08:30:47.536Z,19.54
2023-05-02T08:31:47.550Z,20.57
2023-05-02T08:32:47.621Z,21.13
2023-05-02T08:33:47.520Z,20.14
2023-05-02T08:34:47.528Z,20.32
2023-05-02T08:35:47.511Z,20.26
2023-05-02T08:36:47.496Z,19.66
2023-05-02T08:37:47.507Z,19.44
2023-05-02T08:38:47.507Z,18.87
2023-05-02T08:39:47.468Z,18.44
2023-05-02T08:40:47.445Z,18.14
2023-05-02T08:41:47.454Z,18.08
2023-05-02T08:42:47.424Z,18.11
2023-05-02T08:43:47.435Z,18.03
2023-05-02T08:44:47.393Z,18.35
2023-05-02T08:45:47.383Z,19.23
2023-05-02T08:46:47.427Z,19.74
2023-05-02T08:47:47.409Z,20.08
2023-05-02T08:48:47.360Z,19.81
2023-05-02T08:49:47.342Z,19.98
2023-05-02T08:50:47.384Z,19.99
2023-05-02T08:51:47.350Z,19.78
2023-05-02T08:52:47.310Z,19.39
2023-05-02T08:53:47.304Z,19.10
2023-05-02T08:54:47.363Z,18.95
2023-05-02T08:55:47.278Z,18.88
2023-05-02T08:56:47.290Z,18.65
2023-05-02T08:57:47.279Z,18.27
2023-05-02T08:58:47.252Z,18.02
2023-05-02T08:59:47.366Z,17.54
2023-05-02T09:00:47.261Z,17.44
2023-05-02T09:01:47.284Z,17.23
2023-05-02T09:02:47.306Z,17.11
2023-05-02T09:03:47.232Z,16.97
2023-05-02T09:04:47.262Z,16.82
2023-05-02T09:05:47.180Z,16.96
2023-05-02T09:06:47.257Z,16.86
2023-05-02T09:07:47.174Z,16.81
2023-05-02T09:08:47.172Z,16.79
2023-05-02T09:09:47.139Z,16.52
2023-05-02T09:10:47.135Z,16.56
2023-05-02T09:11:47.126Z,16.58
2023-05-02T09:12:47.114Z,16.61
2023-05-02T09:13:47.122Z,16.38
2023-05-02T09:14:47.195Z,17.01
2023-05-02T09:15:47.077Z,17.72
2023-05-02T09:16:47.087Z,18.26
2023-05-02T09:18:19.009Z,18.84
2023-05-02T09:18:47.074Z,19.33
2023-05-02T09:19:47.069Z,19.55
2023-05-02T09:20:47.092Z,20.05
2023-05-02T09:21:47.019Z,20.50
2023-05-02T09:22:47.013Z,20.85
2023-05-02T09:23:47.046Z,20.99
2023-05-02T09:24:46.992Z,19.95
2023-05-02T09:25:46.993Z,19.59
2023-05-02T09:26:47.005Z,18.99
2023-05-02T09:27:47.010Z,18.44
2023-05-02T09:28:46.963Z,18.14
2023-05-02T09:29:46.952Z,17.75
2023-05-02T09:30:47.062Z,17.46
2023-05-02T09:31:55.664Z,17.40
2023-05-02T09:32:48.969Z,17.28
2023-05-02T09:33:46.927Z,17.40
2023-05-02T09:34:46.930Z,17.52
2023-05-02T09:35:47.887Z,17.71
2023-05-02T09:36:46.918Z,17.56
2023-05-02T09:37:46.869Z,17.70
2023-05-02T09:38:46.912Z,17.68
2023-05-02T09:39:46.853Z,17.77
2023-05-02T09:40:46.891Z,17.84
2023-05-02T09:41:46.875Z,17.72
2023-05-02T09:42:46.854Z,17.71
2023-05-02T09:43:46.816Z,17.40
2023-05-02T09:44:46.792Z,17.15
2023-05-02T09:45:46.816Z,17.01
2023-05-02T09:46:47.798Z,16.91
2023-05-02T09:47:46.792Z,16.91
2023-05-02T09:48:46.785Z,16.93
2023-05-02T09:49:47.002Z,17.04
2023-05-02T09:50:46.733Z,16.96
2023-05-02T09:51:46.769Z,16.91
2023-05-02T09:52:46.761Z,16.79
2023-05-02T09:53:46.720Z,16.91
2023-05-02T09:54:46.986Z,16.91
2023-05-02T09:55:46.708Z,17.00
2023-05-02T09:56:46.681Z,17.08
2023-05-02T09:57:46.700Z,17.00
2023-05-02T09:58:46.787Z,17.06
2023-05-02T09:59:46.648Z,16.91
2023-05-02T10:00:46.664Z,17.00
2023-05-02T10:01:46.658Z,16.98
2023-05-02T10:02:46.716Z,16.94
2023-05-02T10:03:46.676Z,16.85
2023-05-02T10:04:46.649Z,17.15
2023-05-02T10:05:46.637Z,17.23
2023-05-02T10:06:46.731Z,17.26
2023-05-02T10:07:46.654Z,17.37
2023-05-02T10:08:46.563Z,17.44
2023-05-02T10:09:46.618Z,17.49
2023-05-02T10:10:46.557Z,17.54
2023-05-02T10:11:46.550Z,17.49
2023-05-02T10:12:46.536Z,17.75
2023-05-02T10:13:46.581Z,17.90
2023-05-02T10:14:46.508Z,17.66
2023-05-02T10:15:46.546Z,17.63
2023-05-02T10:16:46.495Z,17.78
2023-05-02T10:17:46.549Z,17.58
2023-05-02T10:18:46.484Z,17.48
2023-05-02T10:19:46.440Z,17.21
2023-05-02T10:20:46.473Z,17.03
2023-05-02T10:21:46.462Z,17.12
2023-05-02T10:22:46.741Z,17.11
2023-05-02T10:23:46.480Z,16.85
2023-05-02T10:24:46.452Z,16.78
2023-05-02T10:25:46.431Z,16.67
2023-05-02T10:26:46.391Z,16.58
2023-05-02T10:27:46.383Z,16.41
2023-05-02T10:28:46.352Z,16.31
2023-05-02T10:29:46.382Z,16.21
2023-05-02T10:30:46.423Z,16.08
2023-05-02T10:31:46.399Z,15.94
2023-05-02T10:32:46.359Z,15.64
2023-05-02T10:33:46.332Z,15.38
2023-05-02T10:34:46.307Z,15.29
2023-05-02T10:35:46.344Z,15.29
2023-05-02T10:36:46.286Z,15.32
2023-05-02T10:37:46.295Z,15.43
2023-05-02T10:38:46.267Z,15.51
2023-05-02T10:39:46.260Z,15.47
2023-05-02T10:40:46.283Z,15.44
2023-05-02T10:41:46.256Z,15.44
2023-05-02T10:42:46.303Z,15.41
2023-05-02T10:43:46.217Z,15.47
2023-05-02T10:44:46.231Z,15.51
2023-05-02T10:45:46.220Z,15.53
2023-05-02T10:46:46.214Z,15.51
2023-05-02T10:47:46.230Z,15.60
2023-05-02T10:48:46.177Z,15.53
2023-05-02T10:49:46.169Z,15.47
2023-05-02T10:50:46.132Z,15.67
2023-05-02T10:51:46.172Z,15.59
2023-05-02T10:52:46.133Z,15.67
2023-05-02T10:53:46.178Z,15.56
2023-05-02T10:54:46.386Z,15.44
2023-05-02T10:55:46.116Z,15.53
2023-05-02T10:56:46.121Z,15.64
2023-05-02T10:57:46.062Z,15.62
2023-05-02T10:58:46.082Z,15.75
2023-05-02T10:59:46.068Z,15.72
2023-05-02T11:00:46.134Z,16.00
2023-05-02T11:01:46.113Z,16.17
2023-05-02T11:02:46.129Z,16.34
2023-05-02T11:03:46.005Z,16.46
2023-05-02T11:04:46.011Z,16.70
2023-05-02T11:05:45.986Z,16.89
2023-05-02T11:06:46.035Z,17.06
2023-05-02T11:07:45.984Z,17.19
2023-05-02T11:08:45.963Z,17.25
2023-05-02T11:09:45.968Z,17.37
2023-05-02T11:10:45.957Z,17.31
2023-05-02T11:11:45.930Z,17.19
2023-05-02T11:12:45.926Z,16.91
2023-05-02T11:13:45.903Z,16.97
2023-05-02T11:14:45.929Z,16.75
2023-05-02T11:15:45.923Z,16.88
2023-05-02T11:16:45.928Z,16.86
2023-05-02T11:17:45.883Z,16.83
2023-05-02T11:18:45.874Z,16.66
2023-05-02T11:19:45.917Z,16.56
2023-05-02T11:20:45.911Z,16.68
2023-05-02T11:21:45.832Z,16.70
2023-05-02T11:22:45.803Z,16.61
2023-05-02T11:23:45.810Z,16.58
2023-05-02T11:24:45.813Z,16.57
2023-05-02T11:25:45.791Z,16.53
2023-05-02T11:26:45.801Z,16.68
2023-05-02T11:27:45.788Z,16.76
2023-05-02T11:28:45.756Z,16.76
2023-05-02T11:29:45.776Z,16.82
2023-05-02T11:30:45.722Z,16.71
2023-05-02T11:31:45.758Z,16.64
2023-05-02T11:32:45.839Z,16.58
2023-05-02T11:33:45.698Z,16.27
2023-05-02T11:34:45.716Z,16.07
2023-05-02T11:35:46.710Z,16.07
2023-05-02T11:36:45.684Z,16.09
2023-05-02T11:37:45.662Z,16.07
2023-05-02T11:38:45.656Z,15.97
2023-05-02T11:39:45.635Z,15.89
2023-05-02T11:40:45.636Z,15.89
2023-05-02T11:41:45.639Z,15.87
2023-05-02T11:42:45.622Z,15.76
2023-05-02T11:43:45.650Z,15.80
2023-05-02T11:44:45.633Z,15.65
2023-05-02T11:45:45.641Z,15.50
2023-05-02T11:46:45.744Z,15.43
2023-05-02T11:47:45.633Z,15.43
2023-05-02T11:48:45.553Z,15.13
2023-05-02T11:49:45.548Z,15.27
2023-05-02T11:50:49.794Z,15.28
2023-05-02T11:51:46.533Z,15.11
2023-05-02T11:52:45.503Z,15.14
2023-05-02T11:53:46.519Z,15.01
2023-05-02T11:54:45.492Z,14.96
2023-05-02T11:55:45.509Z,14.84
2023-05-02T11:56:45.532Z,14.80
2023-05-02T11:57:45.493Z,14.91
2023-05-02T11:58:45.478Z,14.84
2023-05-02T11:59:45.483Z,14.65
2023-05-02T12:00:45.427Z,14.61
2023-05-02T12:01:45.439Z,14.60
2023-05-02T12:02:45.549Z,14.69
2023-05-02T12:03:45.819Z,14.61
2023-05-02T12:04:45.392Z,14.73
2023-05-02T12:05:45.438Z,14.62
2023-05-02T12:06:45.466Z,14.70
2023-05-02T12:07:45.438Z,14.58
2023-05-02T12:08:45.411Z,14.46
2023-05-02T12:09:45.411Z,14.51
2023-05-02T12:10:45.341Z,14.42
2023-05-02T12:11:45.398Z,14.28
2023-05-02T12:12:45.329Z,14.32
2023-05-02T12:13:45.344Z,14.40
2023-05-02T12:14:45.290Z,14.32
2023-05-02T12:15:45.313Z,14.33
2023-05-02T12:16:45.372Z,14.28
2023-05-02T12:17:45.339Z,14.40
2023-05-02T12:18:45.282Z,14.40
2023-05-02T12:19:45.286Z,14.37
2023-05-02T12:20:45.236Z,14.42
2023-05-02T12:21:45.270Z,14.57
2023-05-02T12:22:45.241Z,14.70
2023-05-02T12:23:45.237Z,14.68
2023-05-02T12:24:45.201Z,14.70
2023-05-02T12:25:45.220Z,14.75
2023-05-02T12:26:45.199Z,14.78
2023-05-02T12:27:45.175Z,14.92
2023-05-02T12:28:45.142Z,14.99
2023-05-02T12:29:45.205Z,14.84
2023-05-02T12:30:45.126Z,14.80
2023-05-02T12:31:45.151Z,14.84
2023-05-02T12:32:45.180Z,14.84
2023-05-02T12:33:46.188Z,14.86
2023-05-02T12:34:45.109Z,14.84
2023-05-02T12:35:45.206Z,14.88
2023-05-02T12:36:45.094Z,14.81
2023-05-02T12:37:45.672Z,14.81
2023-05-02T12:38:45.058Z,14.98
2023-05-02T12:39:45.050Z,14.96
2023-05-02T12:40:45.015Z,14.94
2023-05-02T12:41:45.047Z,14.99
2023-05-02T12:42:45.029Z,14.99
2023-05-02T12:43:45.007Z,14.88
2023-05-02T12:44:45.027Z,14.98
2023-05-02T12:45:44.980Z,14.96
2023-05-02T12:46:45.046Z,14.88
2023-05-02T12:47:45.019Z,14.91
2023-05-02T12:48:46.236Z,14.99
2023-05-02T12:49:44.919Z,15.07
2023-05-02T12:50:44.988Z,14.99
2023-05-02T12:51:44.920Z,15.03
2023-05-02T12:52:44.961Z,14.98